Mills, Nebraska
Current Conditions -  °F | °C
As of 4:53 PM on Saturday 25 Oct 2014 (Local Time) from KICR Reporting Station
Clear Clear  
Wind Chill: 70°   Ceiling: Unl
Heat Index: 70°   Visibility: 10mi
Dew Point: 29°   Wind: 9mph
Humidity: 22%   Direction: 120°ESE
Pressure: 30.05"   Gusts: NA
Location:  42.94°N, 99.44°W
Report Text: KICR 252153Z AUTO 12008KT 10SM CLR 21/M02 A3005 RMK AO2 SLP171 T02111017 $
Loading
Personal Weather Stations






























Interactive Weather Map
Tropical Storm Tracking
New forecast layout! Learn more

10-Day Weather Forecast

Advertisements
Track Severe Weather on mobile